Main page
METAR-TAF:

METAR-TAF

Airports :

Troyes – Barberey Airport

Troyes, France

latitude: 48-20N, longitude: 004-01E, elevation: 118 m

Current weather observation

The report was made 12 minutes ago, at 19:00 UTC
Wind 12 kt from the South
Temperature 9°C
Humidity 71%
Pressure 1011 hPa
Visibility 10 km or more
Overcast at a height of 2100 ft

METAR: LFQB 281900Z AUTO 17012KT 9999 OVC021 09/04 Q1011

Time: 20:12 (19:12 UTC)


TAF: missing

Weather observations and forecasts of more than 4000 airports (METAR and TAF reports).

The available stations are represented by yellow and red dots on the map.

Hover mouse over dot to see the name of the station.

Then click to see weather observations and forecasts.

To change the map : click on the green buttons with a black cross to zoom in, on the green button with a dash to zoom out, or on the green arrows for adjacent maps.


METAR-TAF: